KDRI/DRI METAR and TAF weather

Enter ICAO airport designator
Station Type Date Time Source
KDRI METAR 2022/01/28 00:15 UTC NOAA

KDRI 280015Z AUTO 00000KT 10SM CLR 09/00 A3025 RMK AO2 T00940000


Station Type Date Time Source
KDRI Decoded METAR 2022/01/28 00:15 UTC NOAA

De Ridder, Beauregard Parish Airport, LA, United States (KDRI) 30-49-54N 093-20-23W
Jan 27, 2022 - 07:15 PM EST / 2022.01.28 0015 UTC
Wind: Calm:0
Visibility: 10 mile(s):0
Sky conditions: clear
Temperature: 48.9 F (9.4 C)
Dew Point: 32.0 F (0.0 C)
Relative Humidity: 51%
Pressure (altimeter): 30.25 in. Hg (1024 hPa)
ob: KDRI 280015Z AUTO 00000KT 10SM CLR 09/00 A3025 RMK AO2 T00940000
cycle: 0

Station Type Date Time Source
KDRI TAF UTC NOAA

Error!

Example: see airport list